Time;durP1;ratioP1;P1;durP2;ratioP2;P2;SDS_P1;SDS_P2;PMS_P1;PMS_P2;Temp;Humidity;BMP_temperature;BMP_pressure;BME280_temperature;BME280_humidity;BME280_pressure;Samples;Min_cycle;Max_cycle;Signal;HPM_P1;HPM_P2
2024/02/02 00:01:14;;;;;;;;;;;179.70;2252.80;;;;;;5095035;28;19908;-83
2024/02/02 00:03:39;;;;;;;;;;;179.80;2252.80;;;;;;5076490;28;19904;-80
2024/02/02 00:06:05;;;;;;;;;;;179.70;2252.80;;;;;;5082809;28;20273;-83
2024/02/02 00:08:31;;;;;;;;;;;179.70;2252.80;;;;;;5095847;28;20010;-80
2024/02/02 00:10:56;;;;;;;;;;;179.60;2252.80;;;;;;5097510;28;19927;-80
2024/02/02 00:13:22;;;;;;;;;;;179.60;2252.80;;;;;;5087378;28;19916;-85
2024/02/02 00:15:48;;;;;;;;;;;179.60;2252.80;;;;;;5109051;28;20357;-80
2024/02/02 00:18:14;;;;;;;;;;;179.60;2252.80;;;;;;5088679;28;19904;-80
2024/02/02 00:20:39;;;;;;;;;;;179.50;2252.80;;;;;;5090537;28;19950;-83
2024/02/02 00:23:05;;;;;;;;;;;179.40;2252.80;;;;;;5109110;28;19907;-80
2024/02/02 00:25:31;;;;;;;;;;;179.40;2252.80;;;;;;5089578;28;19912;-80
2024/02/02 00:27:57;;;;;;;;;;;179.30;2252.80;;;;;;5106815;28;19908;-81
2024/02/02 00:30:22;;;;;;;;;;;179.20;2252.80;;;;;;5089173;28;19962;-80
2024/02/02 00:32:48;;;;;;;;;;;154.50;2252.80;;;;;;5087384;28;20309;-80
2024/02/02 00:35:14;;;;;;;;;;;154.40;2252.80;;;;;;5084515;28;19908;-79
2024/02/02 00:37:40;;;;;;;;;;;154.50;2252.80;;;;;;5105488;28;19908;-80
2024/02/02 00:40:06;;;;;;;;;;;154.50;2252.80;;;;;;5085195;28;20315;-80
2024/02/02 00:42:32;;;;;;;;;;;154.50;2252.80;;;;;;5087863;28;19911;-79
2024/02/02 00:44:59;;;;;;;;;;;154.50;2252.80;;;;;;5089893;28;19908;-79
2024/02/02 00:47:25;;;;;;;;;;;154.40;2252.80;;;;;;5090839;28;19912;-80
2024/02/02 00:49:51;;;;;;;;;;;154.50;2252.80;;;;;;5087245;28;19908;-81
2024/02/02 00:52:17;;;;;;;;;;;154.50;2252.80;;;;;;5107309;28;19919;-80
2024/02/02 00:54:42;;;;;;;;;;;154.40;2252.80;;;;;;5095863;28;19907;-81
2024/02/02 00:57:08;;;;;;;;;;;154.40;2252.80;;;;;;5091562;28;19926;-81
2024/02/02 00:59:34;;;;;;;;;;;154.50;2252.80;;;;;;5092151;28;19904;-80
2024/02/02 01:02:00;;;;;;;;;;;154.50;2252.80;;;;;;5093288;28;19905;-81
2024/02/02 01:04:25;;;;;;;;;;;154.40;2252.80;;;;;;5093459;28;19911;-83
2024/02/02 01:06:51;;;;;;;;;;;154.30;2252.80;;;;;;5095948;28;19957;-81
2024/02/02 01:09:16;;;;;;;;;;;154.40;2252.80;;;;;;5096123;28;19930;-80
2024/02/02 01:11:43;;;;;;;;;;;154.40;2252.80;;;;;;5096843;28;19916;-81
2024/02/02 01:14:08;;;;;;;;;;;154.40;2252.80;;;;;;5103566;28;20005;-81
2024/02/02 01:16:34;;;;;;;;;;;154.40;2252.80;;;;;;5094888;28;19957;-81
2024/02/02 01:19:00;;;;;;;;;;;154.30;2252.80;;;;;;5104636;28;19952;-80
2024/02/02 01:21:25;;;;;;;;;;;154.30;2252.80;;;;;;5087127;28;19914;-81
2024/02/02 01:23:51;;;;;;;;;;;154.20;2252.80;;;;;;5091036;28;20269;-80
2024/02/02 01:26:17;;;;;;;;;;;154.20;2252.80;;;;;;5104072;28;19904;-80
2024/02/02 01:28:42;;;;;;;;;;;154.30;2252.80;;;;;;5097446;28;20022;-81
2024/02/02 01:31:08;;;;;;;;;;;154.20;2252.80;;;;;;5095256;28;19915;-80
2024/02/02 01:33:33;;;;;;;;;;;154.10;2252.80;;;;;;5089039;28;20357;-80
2024/02/02 01:35:59;;;;;;;;;;;154.20;2252.80;;;;;;5098055;28;21554;-80
2024/02/02 01:38:25;;;;;;;;;;;154.30;2252.80;;;;;;5097604;28;19930;-81
2024/02/02 01:40:50;;;;;;;;;;;154.20;2252.80;;;;;;5091769;28;19999;-80
2024/02/02 01:43:16;;;;;;;;;;;154.10;2252.80;;;;;;5098796;28;19907;-81
2024/02/02 01:45:42;;;;;;;;;;;154.10;2252.80;;;;;;5109696;28;20411;-80
2024/02/02 01:48:08;;;;;;;;;;;154.10;2252.80;;;;;;5098193;28;19972;-80
2024/02/02 01:50:33;;;;;;;;;;;154.10;2252.80;;;;;;5114898;28;20391;-80
2024/02/02 01:52:59;;;;;;;;;;;154.10;2252.80;;;;;;5092433;28;19916;-80
2024/02/02 01:55:26;;;;;;;;;;;154.10;2252.80;;;;;;5091510;28;19915;-80
2024/02/02 01:57:52;;;;;;;;;;;154.10;2252.80;;;;;;5101139;28;19999;-80
2024/02/02 02:00:17;;;;;;;;;;;154.10;2252.80;;;;;;5109722;28;19935;-80
2024/02/02 02:02:43;;;;;;;;;;;154.00;2252.80;;;;;;5097384;28;19912;-79
2024/02/02 02:05:09;;;;;;;;;;;154.00;2252.80;;;;;;5096460;28;19907;-79
2024/02/02 02:07:35;;;;;;;;;;;154.00;2252.80;;;;;;5093113;28;20313;-80
2024/02/02 02:10:03;;;;;;;;;;;154.00;2252.80;;;;;;5095808;28;19911;-83
2024/02/02 02:12:28;;;;;;;;;;;154.00;2252.80;;;;;;5098554;28;19957;-80
2024/02/02 02:14:54;;;;;;;;;;;153.90;2252.80;;;;;;5087827;28;19916;-80
2024/02/02 02:17:20;;;;;;;;;;;153.90;2252.80;;;;;;5096800;28;19912;-80
2024/02/02 02:19:46;;;;;;;;;;;153.80;2252.80;;;;;;5088276;28;19969;-80
2024/02/02 02:22:12;;;;;;;;;;;153.80;2252.80;;;;;;5097765;28;19911;-83
2024/02/02 02:24:38;;;;;;;;;;;153.80;2252.80;;;;;;5094024;28;19907;-80
2024/02/02 02:27:03;;;;;;;;;;;153.80;2252.80;;;;;;5111155;28;20011;-79
2024/02/02 02:29:29;;;;;;;;;;;153.70;2252.80;;;;;;5103391;28;19931;-78
2024/02/02 02:31:55;;;;;;;;;;;153.60;2252.80;;;;;;5108546;28;19908;-78
2024/02/02 02:34:22;;;;;;;;;;;153.70;2252.80;;;;;;5102168;28;19914;-79
2024/02/02 02:36:48;;;;;;;;;;;153.60;2252.80;;;;;;5094510;28;19908;-79
2024/02/02 02:39:14;;;;;;;;;;;153.60;2252.80;;;;;;5102928;28;19904;-79
2024/02/02 02:41:40;;;;;;;;;;;153.70;2252.80;;;;;;5108211;28;19994;-78
2024/02/02 02:44:06;;;;;;;;;;;153.60;2252.80;;;;;;5095370;28;19935;-80
2024/02/02 02:46:31;;;;;;;;;;;153.60;2252.80;;;;;;5112629;28;19919;-78
2024/02/02 02:48:57;;;;;;;;;;;153.60;2252.80;;;;;;5086674;28;19904;-78
2024/02/02 02:51:23;;;;;;;;;;;153.60;2252.80;;;;;;5095144;28;20345;-83
2024/02/02 02:53:49;;;;;;;;;;;153.60;2252.80;;;;;;5094014;28;19915;-79
2024/02/02 02:56:14;;;;;;;;;;;153.60;2252.80;;;;;;5109395;27;19904;-79
2024/02/02 02:58:40;;;;;;;;;;;128.90;2252.80;;;;;;5105620;27;19907;-78
2024/02/02 03:01:06;;;;;;;;;;;128.80;2252.80;;;;;;5127523;27;19903;-79
2024/02/02 03:03:31;;;;;;;;;;;128.70;2252.80;;;;;;5103305;27;20307;-79
2024/02/02 03:05:57;;;;;;;;;;;128.70;2252.80;;;;;;5107792;27;19997;-79
2024/02/02 03:08:23;;;;;;;;;;;128.70;2252.80;;;;;;5121524;27;19952;-79
2024/02/02 03:10:48;;;;;;;;;;;128.70;2252.80;;;;;;5124028;27;19915;-79
2024/02/02 03:13:14;;;;;;;;;;;128.80;2252.80;;;;;;5102943;27;19968;-79
2024/02/02 03:15:40;;;;;;;;;;;128.90;2252.80;;;;;;5107831;27;19951;-78
2024/02/02 03:18:06;;;;;;;;;;;128.90;2252.80;;;;;;5105215;28;19965;-80
2024/02/02 03:20:32;;;;;;;;;;;128.90;2252.80;;;;;;5116825;27;19907;-78
2024/02/02 03:22:57;;;;;;;;;;;128.90;2252.80;;;;;;5100255;27;20011;-78
2024/02/02 03:25:23;;;;;;;;;;;128.80;2252.80;;;;;;5105906;27;19911;-81
2024/02/02 03:27:49;;;;;;;;;;;128.60;2252.80;;;;;;5126786;27;19918;-79
2024/02/02 03:30:14;;;;;;;;;;;128.80;2252.80;;;;;;5117007;27;19922;-79
2024/02/02 03:32:41;;;;;;;;;;;128.90;2252.80;;;;;;5099984;28;19911;-79
2024/02/02 03:35:07;;;;;;;;;;;128.90;2252.80;;;;;;5104477;27;19977;-80
2024/02/02 03:37:33;;;;;;;;;;;128.80;2252.80;;;;;;5125219;27;19943;-79
2024/02/02 03:39:58;;;;;;;;;;;128.80;2252.80;;;;;;5097092;28;19991;-80
2024/02/02 03:42:24;;;;;;;;;;;128.80;2252.80;;;;;;5115161;27;19904;-79
2024/02/02 03:44:50;;;;;;;;;;;128.80;2252.80;;;;;;5119515;27;19907;-79
2024/02/02 03:47:15;;;;;;;;;;;128.70;2252.80;;;;;;5095399;27;19907;-79
2024/02/02 03:49:41;;;;;;;;;;;128.70;2252.80;;;;;;5118606;27;19949;-79
2024/02/02 03:52:07;;;;;;;;;;;128.70;2252.80;;;;;;5111477;27;20345;-78
2024/02/02 03:54:34;;;;;;;;;;;128.60;2252.80;;;;;;5101012;27;20337;-79
2024/02/02 03:57:01;;;;;;;;;;;128.80;2252.80;;;;;;5125819;27;19911;-79
2024/02/02 03:59:27;;;;;;;;;;;128.80;2252.80;;;;;;5099828;27;20356;-80
2024/02/02 04:01:52;;;;;;;;;;;128.80;2252.80;;;;;;5122630;27;19922;-78
2024/02/02 04:04:18;;;;;;;;;;;128.80;2252.80;;;;;;5106191;27;19911;-78
2024/02/02 04:06:43;;;;;;;;;;;128.70;2252.80;;;;;;5095141;27;19993;-78
2024/02/02 04:09:10;;;;;;;;;;;128.80;2252.80;;;;;;5122536;27;20344;-78
2024/02/02 04:11:36;;;;;;;;;;;128.70;2252.80;;;;;;5124208;27;19912;-80
2024/02/02 04:14:02;;;;;;;;;;;128.60;2252.80;;;;;;5120752;28;19914;-83
2024/02/02 04:16:28;;;;;;;;;;;128.60;2252.80;;;;;;5120889;28;19915;-79
2024/02/02 04:18:53;;;;;;;;;;;128.70;2252.80;;;;;;5107787;28;20357;-79
2024/02/02 04:21:19;;;;;;;;;;;128.60;2252.80;;;;;;5099436;28;19904;-81
2024/02/02 04:23:45;;;;;;;;;;;128.50;2252.80;;;;;;5086637;28;19907;-79
2024/02/02 04:26:10;;;;;;;;;;;128.40;2252.80;;;;;;5105491;28;19910;-80
2024/02/02 04:28:36;;;;;;;;;;;128.40;2252.80;;;;;;5095524;28;19918;-79
2024/02/02 04:31:02;;;;;;;;;;;128.50;2252.80;;;;;;5099650;28;19998;-79
2024/02/02 04:33:27;;;;;;;;;;;128.60;2252.80;;;;;;5101578;28;20010;-79
2024/02/02 04:35:53;;;;;;;;;;;128.60;2252.80;;;;;;5117275;28;19935;-79
2024/02/02 04:38:18;;;;;;;;;;;128.70;2252.80;;;;;;5104693;28;19996;-83
2024/02/02 04:40:45;;;;;;;;;;;128.70;2252.80;;;;;;5099648;27;19907;-81
2024/02/02 04:43:10;;;;;;;;;;;153.70;2252.80;;;;;;5117073;27;19907;-79
2024/02/02 04:45:36;;;;;;;;;;;128.70;2252.80;;;;;;5115789;27;19912;-79
2024/02/02 04:48:03;;;;;;;;;;;128.80;2252.80;;;;;;5114809;27;20389;-79
2024/02/02 04:50:28;;;;;;;;;;;128.70;2252.80;;;;;;5115118;27;19972;-79
2024/02/02 04:52:54;;;;;;;;;;;128.70;2252.80;;;;;;5112255;27;19962;-78
2024/02/02 04:55:19;;;;;;;;;;;128.60;2252.80;;;;;;5129024;27;20273;-79
2024/02/02 04:57:45;;;;;;;;;;;128.60;2252.80;;;;;;5101562;28;19903;-79
2024/02/02 05:00:11;;;;;;;;;;;128.60;2252.80;;;;;;5114926;27;20344;-78
2024/02/02 05:02:37;;;;;;;;;;;128.40;2252.80;;;;;;5110123;27;19990;-78
2024/02/02 05:05:03;;;;;;;;;;;128.50;2252.80;;;;;;5110116;27;19907;-78
2024/02/02 05:07:29;;;;;;;;;;;128.40;2252.80;;;;;;5119252;27;19915;-79
2024/02/02 05:09:55;;;;;;;;;;;128.40;2252.80;;;;;;5108469;28;19912;-79
2024/02/02 05:12:20;;;;;;;;;;;128.50;2252.80;;;;;;5126647;27;19915;-79
2024/02/02 05:14:46;;;;;;;;;;;128.40;2252.80;;;;;;5105090;28;19908;-79
2024/02/02 05:17:12;;;;;;;;;;;128.40;2252.80;;;;;;5097784;27;19907;-79
2024/02/02 05:19:37;;;;;;;;;;;128.50;2252.80;;;;;;5101805;27;19903;-79
2024/02/02 05:22:03;;;;;;;;;;;128.50;2252.80;;;;;;5101927;28;19919;-79
2024/02/02 05:24:29;;;;;;;;;;;128.30;2252.80;;;;;;5103048;27;19909;-79
2024/02/02 05:26:55;;;;;;;;;;;128.20;2252.80;;;;;;5107758;27;20399;-83
2024/02/02 05:29:21;;;;;;;;;;;128.10;2252.80;;;;;;5120905;27;20010;-78
2024/02/02 05:31:46;;;;;;;;;;;128.10;2252.80;;;;;;5095181;28;19912;-79
2024/02/02 05:34:12;;;;;;;;;;;128.00;2252.80;;;;;;5104408;28;19904;-79
2024/02/02 05:36:38;;;;;;;;;;;103.30;2227.20;;;;;;5090769;28;20391;-80
2024/02/02 05:39:03;;;;;;;;;;;103.30;2227.20;;;;;;5088250;28;19922;-79
2024/02/02 05:41:29;;;;;;;;;;;128.00;2252.80;;;;;;5087081;28;20293;-82
2024/02/02 05:43:55;;;;;;;;;;;128.00;2252.80;;;;;;5091309;28;20359;-81
2024/02/02 05:46:20;;;;;;;;;;;128.00;2252.80;;;;;;5086976;28;19961;-83
2024/02/02 05:48:46;;;;;;;;;;;128.10;2252.80;;;;;;5113363;28;19911;-80
2024/02/02 05:51:11;;;;;;;;;;;128.00;2252.80;;;;;;5104513;28;19912;-80
2024/02/02 05:53:37;;;;;;;;;;;128.00;2252.80;;;;;;5111411;28;19968;-81
2024/02/02 05:56:03;;;;;;;;;;;128.00;2252.80;;;;;;5083382;28;19912;-81
2024/02/02 05:58:29;;;;;;;;;;;128.40;2252.80;;;;;;5104826;28;19914;-80
2024/02/02 06:00:54;;;;;;;;;;;103.30;2227.20;;;;;;5113358;28;19908;-80
2024/02/02 06:03:20;;;;;;;;;;;128.00;2252.80;;;;;;5103840;28;19908;-81
2024/02/02 06:05:46;;;;;;;;;;;128.00;2252.80;;;;;;5110363;28;19910;-80
2024/02/02 06:08:13;;;;;;;;;;;103.30;2227.20;;;;;;5089676;28;19904;-80
2024/02/02 06:10:42;;;;;;;;;;;128.70;2252.80;;;;;;5108819;28;19912;-82
2024/02/02 06:13:08;;;;;;;;;;;103.30;2227.20;;;;;;5091558;28;19922;-81
2024/02/02 06:15:34;;;;;;;;;;;103.20;2227.20;;;;;;5103632;28;19983;-80
2024/02/02 06:17:59;;;;;;;;;;;103.20;2227.20;;;;;;5091456;28;19918;-80
2024/02/02 06:20:26;;;;;;;;;;;103.20;2227.20;;;;;;5088496;28;19908;-84
2024/02/02 06:22:52;;;;;;;;;;;103.20;2227.20;;;;;;5090228;28;19907;-80
2024/02/02 06:25:18;;;;;;;;;;;103.30;2227.20;;;;;;5090922;28;19908;-79
2024/02/02 06:27:43;;;;;;;;;;;103.30;2227.20;;;;;;5082634;28;19912;-80
2024/02/02 06:30:09;;;;;;;;;;;103.30;2227.20;;;;;;5088275;28;19916;-85
2024/02/02 06:32:35;;;;;;;;;;;128.00;2252.80;;;;;;5091317;28;19908;-79
2024/02/02 06:35:01;;;;;;;;;;;128.00;2252.80;;;;;;5115915;28;20365;-80
2024/02/02 06:37:27;;;;;;;;;;;128.10;2252.80;;;;;;5087398;28;20262;-81
2024/02/02 06:39:53;;;;;;;;;;;128.20;2252.80;;;;;;5080229;28;19940;-81
2024/02/02 06:42:19;;;;;;;;;;;128.20;2252.80;;;;;;5087524;28;19908;-80
2024/02/02 06:44:44;;;;;;;;;;;128.20;2252.80;;;;;;5082758;28;19929;-79
2024/02/02 06:47:10;;;;;;;;;;;128.20;2252.80;;;;;;5091213;28;19911;-79
2024/02/02 06:49:36;;;;;;;;;;;128.30;2252.80;;;;;;5096379;28;19974;-80
2024/02/02 06:52:01;;;;;;;;;;;128.40;2252.80;;;;;;5088597;28;19960;-78
2024/02/02 06:54:27;;;;;;;;;;;128.50;2252.80;;;;;;5081436;28;20289;-78
2024/02/02 06:56:53;;;;;;;;;;;128.40;2252.80;;;;;;5087085;28;19999;-79
2024/02/02 06:59:18;;;;;;;;;;;128.50;2252.80;;;;;;5108554;28;19908;-79
2024/02/02 07:01:44;;;;;;;;;;;128.60;2252.80;;;;;;5085978;28;19911;-79
2024/02/02 07:04:14;;;;;;;;;;;128.60;2252.80;;;;;;5084319;28;19911;-79
2024/02/02 07:06:40;;;;;;;;;;;128.60;2252.80;;;;;;5089128;28;19939;-80
2024/02/02 07:09:19;;;;;;;;;;;128.70;2252.80;;;;;;5088284;28;19947;-80
2024/02/02 07:11:54;;;;;;;;;;;128.60;2252.80;;;;;;5084446;28;19916;-82
2024/02/02 07:14:36;;;;;;;;;;;128.70;2252.80;;;;;;5088940;28;19914;-80
2024/02/02 07:17:02;;;;;;;;;;;128.80;2252.80;;;;;;5081451;28;20049;-80
2024/02/02 07:19:36;;;;;;;;;;;128.80;2252.80;;;;;;5079938;28;19908;-80
2024/02/02 07:22:04;;;;;;;;;;;128.70;2252.80;;;;;;5089576;28;19940;-81
2024/02/02 07:24:29;;;;;;;;;;;128.60;2252.80;;;;;;5086419;28;20031;-80
2024/02/02 07:26:55;;;;;;;;;;;128.70;2252.80;;;;;;5090805;28;19946;-79
2024/02/02 07:29:38;;;;;;;;;;;128.70;2252.80;;;;;;5084864;28;20319;-80
2024/02/02 07:32:04;;;;;;;;;;;128.80;2252.80;;;;;;5083452;28;19919;-79
2024/02/02 07:34:41;;;;;;;;;;;128.90;2252.80;;;;;;5086389;28;20365;-82
2024/02/02 07:37:15;;;;;;;;;;;153.70;2252.80;;;;;;5087120;28;20369;-84
2024/02/02 07:39:41;;;;;;;;;;;153.70;2252.80;;;;;;5107293;28;19908;-83
2024/02/02 07:42:06;;;;;;;;;;;153.80;2252.80;;;;;;5093867;28;19908;-84
2024/02/02 07:44:32;;;;;;;;;;;153.70;2252.80;;;;;;5087967;28;19929;-83
2024/02/02 07:46:57;;;;;;;;;;;153.90;2252.80;;;;;;5087322;28;20001;-82
2024/02/02 07:49:23;;;;;;;;;;;154.00;2252.80;;;;;;5103688;28;19956;-85
2024/02/02 07:51:49;;;;;;;;;;;153.80;2252.80;;;;;;5094092;28;19915;-91
2024/02/02 07:54:14;;;;;;;;;;;154.00;2252.80;;;;;;5107522;28;19922;-88
2024/02/02 07:56:40;;;;;;;;;;;154.30;2252.80;;;;;;5084502;28;19904;-83
2024/02/02 07:59:05;;;;;;;;;;;154.40;2252.80;;;;;;5092488;28;19908;-83
2024/02/02 08:01:33;;;;;;;;;;;154.50;2252.80;;;;;;5089204;28;19915;-83
2024/02/02 08:04:00;;;;;;;;;;;179.20;2252.80;;;;;;5110545;28;19943;-80
2024/02/02 08:06:26;;;;;;;;;;;179.20;2252.80;;;;;;5095841;28;19907;-84
2024/02/02 08:08:51;;;;;;;;;;;154.40;2252.80;;;;;;5088647;28;19908;-84
2024/02/02 08:11:17;;;;;;;;;;;154.40;2252.80;;;;;;5094351;28;19922;-84
2024/02/02 08:13:43;;;;;;;;;;;154.40;2252.80;;;;;;5107578;28;19908;-87
2024/02/02 08:16:09;;;;;;;;;;;154.30;2252.80;;;;;;5084368;28;19938;-77
2024/02/02 08:18:36;;;;;;;;;;;154.20;2252.80;;;;;;5110053;28;19911;-85
2024/02/02 08:21:02;;;;;;;;;;;154.30;2252.80;;;;;;5082305;28;19904;-84
2024/02/02 08:23:28;;;;;;;;;;;154.50;2252.80;;;;;;5089271;28;19950;-84
2024/02/02 08:25:53;;;;;;;;;;;154.50;2252.80;;;;;;5093972;28;20407;-81
2024/02/02 08:28:19;;;;;;;;;;;179.20;2252.80;;;;;;5092143;28;19907;-82
2024/02/02 08:30:45;;;;;;;;;;;179.30;2252.80;;;;;;5094676;28;19916;-82
2024/02/02 08:33:10;;;;;;;;;;;179.30;2252.80;;;;;;5090899;28;19911;-82
2024/02/02 08:35:36;;;;;;;;;;;179.20;2252.80;;;;;;5095226;28;20487;-90
2024/02/02 08:38:03;;;;;;;;;;;179.40;2252.80;;;;;;5106594;28;19915;-84
2024/02/02 08:40:45;;;;;;;;;;;179.40;2252.80;;;;;;5083160;28;19912;-83
2024/02/02 08:43:12;;;;;;;;;;;179.40;2252.80;;;;;;5091761;28;19982;-84
2024/02/02 08:45:40;;;;;;;;;;;179.40;2252.80;;;;;;5096429;28;19903;-82
2024/02/02 08:48:12;;;;;;;;;;;179.50;2252.80;;;;;;5114196;28;19912;-82
2024/02/02 08:50:38;;;;;;;;;;;179.60;2252.80;;;;;;5113329;28;19915;-83
2024/02/02 08:53:06;;;;;;;;;;;179.80;2252.80;;;;;;5096369;28;20375;-80
2024/02/02 08:55:43;;;;;;;;;;;180.00;2252.80;;;;;;5096368;28;19904;-85
2024/02/02 08:58:09;;;;;;;;;;;179.90;2252.80;;;;;;5096593;28;19903;-83
2024/02/02 09:00:34;;;;;;;;;;;180.00;2252.80;;;;;;5096146;28;19908;-83
2024/02/02 09:03:04;;;;;;;;;;;204.80;2252.80;;;;;;5113488;28;20352;-84
2024/02/02 09:05:37;;;;;;;;;;;180.10;2252.80;;;;;;5113357;28;19930;-86
2024/02/02 09:08:05;;;;;;;;;;;204.80;2252.80;;;;;;5114813;28;19998;-87
2024/02/02 09:10:31;;;;;;;;;;;204.90;2252.80;;;;;;5113112;28;19912;-82
2024/02/02 09:13:03;;;;;;;;;;;204.90;2252.80;;;;;;5096206;28;19987;-92
2024/02/02 09:15:33;;;;;;;;;;;204.90;2252.80;;;;;;5095750;28;19912;-85
2024/02/02 09:17:58;;;;;;;;;;;204.90;2252.80;;;;;;5096321;28;19969;-85
2024/02/02 09:20:43;;;;;;;;;;;205.00;2252.80;;;;;;5096203;28;20353;-83
2024/02/02 09:23:09;;;;;;;;;;;205.10;2252.80;;;;;;5114288;28;19917;-88
2024/02/02 09:25:40;;;;;;;;;;;205.30;2252.80;;;;;;5096106;28;20380;-84
2024/02/02 09:28:06;;;;;;;;;;;205.40;2252.80;;;;;;5098605;28;19930;-88
2024/02/02 09:30:32;;;;;;;;;;;205.70;2252.80;;;;;;5118076;28;19912;-83
2024/02/02 09:32:59;;;;;;;;;;;230.50;2252.80;;;;;;5117093;28;19968;-81
2024/02/02 09:35:28;;;;;;;;;;;230.50;2252.80;;;;;;5099849;28;19904;-88
2024/02/02 09:37:53;;;;;;;;;;;230.60;2252.80;;;;;;5099997;28;19907;-81
2024/02/02 09:40:37;;;;;;;;;;;230.40;2252.80;;;;;;5099457;28;20372;-87
2024/02/02 09:43:12;;;;;;;;;;;230.40;2252.80;;;;;;5117784;28;19904;-84
2024/02/02 09:45:51;;;;;;;;;;;205.70;2252.80;;;;;;5116491;28;20375;-83
2024/02/02 09:48:34;;;;;;;;;;;205.70;2252.80;;;;;;5090481;28;19908;-87
2024/02/02 09:51:21;;;;;;;;;;;230.40;2252.80;;;;;;5083406;28;19923;-81
2024/02/02 09:53:53;;;;;;;;;;;230.40;2252.80;;;;;;5131109;27;20008;-81
2024/02/02 09:56:18;;;;;;;;;;;230.60;2252.80;;;;;;5119638;27;20002;-78
2024/02/02 09:58:48;;;;;;;;;;;230.70;2252.80;;;;;;5119452;27;20364;-82
2024/02/02 10:01:33;;;;;;;;;;;230.80;2252.80;;;;;;5111084;28;20287;-80
2024/02/02 10:04:14;;;;;;;;;;;230.90;2252.80;;;;;;5117084;27;19911;-81
2024/02/02 10:06:52;;;;;;;;;;;230.80;2252.80;;;;;;5137623;27;19911;-83
2024/02/02 10:09:30;;;;;;;;;;;230.80;2252.80;;;;;;5125298;27;19903;-79
2024/02/02 10:11:55;;;;;;;;;;;230.80;2252.80;;;;;;5118421;27;19925;-83
2024/02/02 10:14:39;;;;;;;;;;;230.80;2252.80;;;;;;5137669;27;19903;-83
2024/02/02 10:17:11;;;;;;;;;;;230.90;2252.80;;;;;;5118976;27;19985;-81
2024/02/02 10:19:40;;;;;;;;;;;231.00;2252.80;;;;;;5137649;27;19907;-84
2024/02/02 10:22:21;;;;;;;;;;;231.10;2252.80;;;;;;5133129;27;19994;-87
2024/02/02 10:24:49;;;;;;;;;;;231.10;2252.80;;;;;;5127017;27;19907;-82
2024/02/02 10:27:27;;;;;;;;;;;231.20;2252.80;;;;;;5137342;27;19903;-87
2024/02/02 10:30:12;;;;;;;;;;;231.10;2252.80;;;;;;5105197;27;19928;-83
2024/02/02 10:32:41;;;;;;;;;;;231.10;2252.80;;;;;;5137285;27;20253;-81
2024/02/02 10:35:18;;;;;;;;;;;231.10;2252.80;;;;;;5123760;27;19950;-87
2024/02/02 10:37:47;;;;;;;;;;;231.00;2252.80;;;;;;5118844;27;19994;-82
2024/02/02 10:40:28;;;;;;;;;;;231.20;2252.80;;;;;;5118090;27;19904;-86
2024/02/02 10:43:12;;;;;;;;;;;256.20;2252.80;;;;;;5118829;27;19921;-84
2024/02/02 10:45:41;;;;;;;;;;;281.60;2278.40;;;;;;5118515;27;19907;-86
2024/02/02 10:48:13;;;;;;;;;;;282.00;2278.40;;;;;;5136816;27;20386;-80
2024/02/02 10:50:57;;;;;;;;;;;307.20;2304.00;;;;;;5116668;27;19918;-81
2024/02/02 10:53:32;;;;;;;;;;;307.60;2304.00;;;;;;5105457;28;19915;-80
2024/02/02 10:56:18;;;;;;;;;;;307.90;2304.00;;;;;;5100778;28;19904;-82
2024/02/02 10:58:51;;;;;;;;;;;308.10;2304.00;;;;;;5113930;28;19907;-80
2024/02/02 11:01:37;;;;;;;;;;;332.80;2329.60;;;;;;5106182;28;19904;-82
2024/02/02 11:04:19;;;;;;;;;;;307.90;2304.00;;;;;;5112921;28;19996;-82
2024/02/02 11:06:53;;;;;;;;;;;307.70;2304.00;;;;;;5114404;28;19935;-79
2024/02/02 11:09:29;;;;;;;;;;;308.00;2304.00;;;;;;5101682;28;19958;-79
2024/02/02 11:12:01;;;;;;;;;;;332.90;2329.60;;;;;;5109658;28;19955;-79
2024/02/02 11:14:53;;;;;;;;;;;333.30;2329.60;;;;;;5113711;28;19912;-80
2024/02/02 11:17:23;;;;;;;;;;;333.60;2252.80;;;;;;5086675;28;20357;-80
2024/02/02 11:19:54;;;;;;;;;;;333.60;2073.60;;;;;;5097035;28;19907;-79
2024/02/02 11:22:23;;;;;;;;;;;333.30;2022.40;;;;;;5113860;28;20360;-80
2024/02/02 11:25:11;;;;;;;;;;;333.30;2022.40;;;;;;5114282;28;19970;-83
2024/02/02 11:27:58;;;;;;;;;;;333.50;1996.80;;;;;;5114149;28;19961;-84
2024/02/02 11:30:44;;;;;;;;;;;333.50;1971.20;;;;;;5114177;28;19968;-83
2024/02/02 11:33:23;;;;;;;;;;;358.40;1971.20;;;;;;5113885;28;19903;-84
2024/02/02 11:36:00;;;;;;;;;;;358.60;1920.00;;;;;;5114300;28;20010;-84
2024/02/02 11:38:32;;;;;;;;;;;358.60;1971.20;;;;;;5114453;28;19931;-84
2024/02/02 11:40:58;;;;;;;;;;;358.50;2022.40;;;;;;5115322;28;19903;-84
2024/02/02 11:43:24;;;;;;;;;;;358.40;2073.60;;;;;;5115019;28;19998;-83
2024/02/02 11:45:52;;;;;;;;;;;358.50;1996.80;;;;;;5114005;28;19915;-83
2024/02/02 11:48:39;;;;;;;;;;;333.50;2048.00;;;;;;5113533;28;19904;-83
2024/02/02 11:51:05;;;;;;;;;;;333.70;2022.40;;;;;;5112687;28;19911;-83
2024/02/02 11:53:40;;;;;;;;;;;333.70;2073.60;;;;;;5106164;28;19923;-83
2024/02/02 11:56:29;;;;;;;;;;;333.40;2022.40;;;;;;5096558;28;19923;-84
2024/02/02 11:59:13;;;;;;;;;;;333.60;2022.40;;;;;;5028437;28;19905;-84
2024/02/02 12:01:41;;;;;;;;;;;333.50;1971.20;;;;;;5005101;28;20016;-83
2024/02/02 12:04:23;;;;;;;;;;;333.40;1996.80;;;;;;5015079;28;19905;-83
2024/02/02 12:06:48;;;;;;;;;;;333.50;1996.80;;;;;;5016584;28;19999;-84
2024/02/02 12:09:36;;;;;;;;;;;333.40;2022.40;;;;;;5016491;28;20378;-83
2024/02/02 12:12:03;;;;;;;;;;;333.30;2022.40;;;;;;5015862;28;19913;-83
2024/02/02 12:14:31;;;;;;;;;;;333.10;2048.00;;;;;;5015957;28;19905;-84
2024/02/02 12:17:00;;;;;;;;;;;332.90;2124.80;;;;;;5016131;28;20004;-83
2024/02/02 12:19:26;;;;;;;;;;;332.90;2099.20;;;;;;5015735;28;19912;-87
2024/02/02 12:21:52;;;;;;;;;;;308.10;2099.20;;;;;;5015474;28;19952;-80
2024/02/02 12:24:18;;;;;;;;;;;307.90;2176.00;;;;;;5015630;28;20002;-80
2024/02/02 12:26:44;;;;;;;;;;;307.80;2201.60;;;;;;5015426;28;20382;-81
2024/02/02 12:29:11;;;;;;;;;;;307.50;2252.80;;;;;;5015750;28;20314;-81
2024/02/02 12:31:36;;;;;;;;;;;307.60;2252.80;;;;;;5015186;28;19965;-83
2024/02/02 12:34:02;;;;;;;;;;;307.60;2252.80;;;;;;5015477;28;19994;-85
2024/02/02 12:36:27;;;;;;;;;;;307.40;2278.40;;;;;;5065355;28;19904;-79
2024/02/02 12:38:57;;;;;;;;;;;307.50;2304.00;;;;;;5096416;28;19907;-81
2024/02/02 12:41:22;;;;;;;;;;;307.60;2304.00;;;;;;5114724;28;19908;-88
2024/02/02 12:43:48;;;;;;;;;;;307.60;2304.00;;;;;;5095928;28;19910;-84
2024/02/02 12:46:13;;;;;;;;;;;307.60;2304.00;;;;;;5096310;28;19920;-82
2024/02/02 12:48:40;;;;;;;;;;;307.70;2304.00;;;;;;5096767;28;20267;-83
2024/02/02 12:51:05;;;;;;;;;;;307.80;2304.00;;;;;;5096093;28;19919;-83
2024/02/02 12:53:31;;;;;;;;;;;307.80;2304.00;;;;;;5096260;28;19915;-83
2024/02/02 12:55:57;;;;;;;;;;;307.80;2304.00;;;;;;5114065;28;20288;-81
2024/02/02 12:58:23;;;;;;;;;;;307.80;2252.80;;;;;;5096062;28;19903;-83
2024/02/02 13:00:48;;;;;;;;;;;307.80;2227.20;;;;;;5095846;28;19911;-81
2024/02/02 13:03:14;;;;;;;;;;;307.80;2252.80;;;;;;5099140;28;19915;-83
2024/02/02 13:05:42;;;;;;;;;;;307.60;2278.40;;;;;;5100623;28;20029;-83
2024/02/02 13:08:08;;;;;;;;;;;307.70;2227.20;;;;;;5100373;28;20006;-82
2024/02/02 13:10:34;;;;;;;;;;;307.60;2252.80;;;;;;5100235;28;19959;-85
2024/02/02 13:13:08;;;;;;;;;;;307.30;2304.00;;;;;;5087944;28;20377;-81
2024/02/02 13:15:34;;;;;;;;;;;307.30;2304.00;;;;;;5099389;28;19907;-82
2024/02/02 13:18:05;;;;;;;;;;;282.50;2278.40;;;;;;5118171;28;19918;-81
2024/02/02 13:20:35;;;;;;;;;;;282.50;2278.40;;;;;;5099387;28;19903;-82
2024/02/02 13:23:08;;;;;;;;;;;282.50;2278.40;;;;;;5117991;28;19904;-81
2024/02/02 13:25:35;;;;;;;;;;;282.40;2278.40;;;;;;5109863;28;19983;-82
2024/02/02 13:28:02;;;;;;;;;;;282.40;2278.40;;;;;;5093689;28;20272;-82
2024/02/02 13:30:31;;;;;;;;;;;282.40;2278.40;;;;;;5117684;28;19955;-83
2024/02/02 13:33:01;;;;;;;;;;;282.40;2278.40;;;;;;5085980;28;19904;-81
2024/02/02 13:35:31;;;;;;;;;;;282.30;2278.40;;;;;;5099762;28;19967;-82
2024/02/02 13:37:56;;;;;;;;;;;282.40;2278.40;;;;;;5117747;28;19911;-80
2024/02/02 13:40:27;;;;;;;;;;;282.30;2278.40;;;;;;5099421;28;19903;-82
2024/02/02 13:42:53;;;;;;;;;;;282.20;2278.40;;;;;;5099825;28;20345;-82
2024/02/02 13:45:19;;;;;;;;;;;282.10;2278.40;;;;;;5099121;28;19903;-81
2024/02/02 13:47:53;;;;;;;;;;;282.00;2278.40;;;;;;5099115;28;19965;-82